Time;durP1;ratioP1;P1;durP2;ratioP2;P2;SDS_P1;SDS_P2;PMS_P1;PMS_P2;Temp;Humidity;BMP_temperature;BMP_pressure;BME280_temperature;BME280_humidity;BME280_pressure;Samples;Min_cycle;Max_cycle;Signal;HPM_P1;HPM_P2
2022/01/22 00:01:53;;;;;;;9.70;4.30;;;;;;;-2.92;47.53;100324.83;117135;1185;23486;-61
2022/01/22 00:04:22;;;;;;;13.70;5.00;;;;;;;-2.91;47.76;100332.41;117283;1182;24284;-61
2022/01/22 00:06:52;;;;;;;9.10;3.70;;;;;;;-2.89;47.70;100330.78;117168;1185;21874;-50
2022/01/22 00:09:47;;;;;;;9.20;4.10;;;;;;;-2.88;47.74;100335.83;117256;1185;21891;-61
2022/01/22 00:12:27;;;;;;;5.90;3.00;;;;;;;-2.87;47.74;100338.78;117329;1183;21863;-50
2022/01/22 00:14:55;;;;;;;;;;;;;;;-2.83;47.67;100340.30;117275;1179;21837;-61
2022/01/22 00:17:23;;;;;;;9.10;4.10;;;;;;;-2.80;47.91;100337.66;117215;1186;21862;-50
2022/01/22 00:19:51;;;;;;;7.90;3.20;;;;;;;-2.76;47.75;100335.27;117126;1186;23473;-59
2022/01/22 00:22:24;;;;;;;9.00;3.40;;;;;;;-2.76;47.84;100329.45;117195;1183;22000;-61
2022/01/22 00:24:57;;;;;;;8.60;3.50;;;;;;;-2.77;47.76;100325.42;117191;1186;23564;-61
2022/01/22 00:27:25;;;;;;;9.20;3.50;;;;;;;-2.77;47.88;100322.34;117234;1182;22313;-51
2022/01/22 00:29:54;;;;;;;12.60;4.70;;;;;;;-2.76;47.86;100320.68;117295;1182;22622;-51
2022/01/22 00:32:22;;;;;;;8.60;3.70;;;;;;;-2.75;47.86;100321.03;117161;1178;22659;-62
2022/01/22 00:34:50;;;;;;;10.20;3.80;;;;;;;-2.73;47.83;100315.81;117302;1183;23512;-61
2022/01/22 00:37:19;;;;;;;8.70;3.70;;;;;;;-2.72;47.82;100315.52;117193;1176;21858;-50
2022/01/22 00:39:47;;;;;;;11.00;4.40;;;;;;;-2.74;47.69;100315.95;117288;1176;21868;-61
2022/01/22 00:42:16;;;;;;;10.90;4.80;;;;;;;-2.79;47.71;100314.00;117242;1183;21864;-62
2022/01/22 00:44:46;;;;;;;13.60;5.20;;;;;;;-2.84;47.77;100312.10;116956;1185;23461;-50
2022/01/22 00:47:14;;;;;;;9.80;3.30;;;;;;;-2.88;47.79;100310.56;117198;1186;21875;-50
2022/01/22 00:49:42;;;;;;;8.30;3.70;;;;;;;-2.92;47.65;100303.17;117150;1182;22921;-61
2022/01/22 00:52:11;;;;;;;10.30;3.80;;;;;;;-2.98;47.70;100298.47;117188;1186;23453;-50
2022/01/22 00:54:39;;;;;;;9.70;3.50;;;;;;;-3.02;47.82;100297.98;117172;1186;23461;-61
2022/01/22 00:57:07;;;;;;;9.60;3.90;;;;;;;-3.10;47.75;100294.08;117181;1182;21864;-50
2022/01/22 00:59:36;;;;;;;7.50;3.50;;;;;;;-3.17;48.05;100289.98;117218;1186;22625;-50
2022/01/22 01:02:04;;;;;;;7.60;3.50;;;;;;;-3.19;48.07;100286.98;117075;1182;22859;-50
2022/01/22 01:04:35;;;;;;;8.80;3.90;;;;;;;-3.19;48.07;100285.60;117134;1182;22928;-50
2022/01/22 01:07:15;;;;;;;10.00;4.60;;;;;;;-3.19;48.08;100281.68;117036;1183;23453;-52
2022/01/22 01:09:44;;;;;;;9.10;3.80;;;;;;;-3.19;48.07;100283.55;117186;1183;22944;-50
2022/01/22 01:12:13;;;;;;;8.40;3.50;;;;;;;-3.18;48.10;100281.34;117164;1183;23547;-51
2022/01/22 01:15:06;;;;;;;9.40;4.00;;;;;;;-3.18;48.17;100281.00;117107;1186;23468;-62
2022/01/22 01:34:13;;;;;;;8.60;4.20;;;;;;;-3.35;48.08;100278.94;117072;1186;21919;-60
2022/01/22 01:36:43;;;;;;;11.30;4.50;;;;;;;-3.37;48.17;100275.73;117148;1183;23491;-61
2022/01/22 01:39:16;;;;;;;9.60;5.00;;;;;;;-3.39;48.13;100276.36;117420;1186;22083;-61
2022/01/22 01:42:00;;;;;;;10.60;4.50;;;;;;;-3.40;48.19;100274.59;117148;1186;21964;-51
2022/01/22 01:44:28;;;;;;;9.70;4.60;;;;;;;-3.41;48.17;100274.19;117170;1183;23577;-61
2022/01/22 01:46:59;;;;;;;9.00;4.00;;;;;;;-3.41;48.30;100273.37;117188;1185;23529;-51
2022/01/22 01:49:30;;;;;;;8.50;4.20;;;;;;;-3.40;48.22;100274.13;117284;1185;21866;-61
2022/01/22 01:52:02;;;;;;;10.90;4.80;;;;;;;-3.40;48.32;100275.47;117266;1186;23512;-61
2022/01/22 01:54:45;;;;;;;10.20;4.00;;;;;;;-3.39;48.27;100273.29;117185;1183;23577;-50
2022/01/22 01:57:38;;;;;;;10.30;5.00;;;;;;;-3.38;48.21;100274.33;117264;1182;21927;-62
2022/01/22 02:00:11;;;;;;;11.00;4.30;;;;;;;-3.38;48.21;100271.44;117141;1182;23435;-51
2022/01/22 02:02:41;;;;;;;6.90;3.60;;;;;;;-3.37;48.22;100270.95;117283;1182;24269;-61
2022/01/22 02:05:10;;;;;;;8.00;3.80;;;;;;;-3.38;48.26;100270.58;117208;1182;21897;-50
2022/01/22 02:07:41;;;;;;;8.90;3.90;;;;;;;-3.40;48.16;100271.53;117278;1185;22148;-51
2022/01/22 02:10:14;;;;;;;9.70;5.30;;;;;;;-3.42;48.19;100278.14;117124;1189;24165;-51
2022/01/22 02:23:49;;;;;;;52.70;30.20;;;;;;;-3.68;48.09;100293.31;117198;1182;24283;-50
2022/01/22 02:26:19;;;;;;;47.50;24.40;;;;;;;-3.75;48.14;100297.98;117336;1182;21920;-62
2022/01/22 02:28:49;;;;;;;34.30;16.20;;;;;;;-3.82;48.06;100304.67;117295;1178;21862;-50
2022/01/22 02:36:27;;;;;;;24.80;9.90;;;;;;;-4.05;48.15;100296.52;117366;1184;22796;-61
2022/01/22 02:41:26;;;;;;;18.60;8.30;;;;;;;-4.14;48.19;100294.86;117240;1178;23670;-63
2022/01/22 02:43:55;;;;;;;16.80;7.60;;;;;;;-4.15;48.25;100290.36;117113;1182;23576;-50
2022/01/22 02:46:25;;;;;;;23.60;9.80;;;;;;;-4.14;48.20;100290.23;117068;1186;21882;-49
2022/01/22 02:48:54;;;;;;;;;;;;;;;-4.14;48.31;100289.38;117181;1186;21883;-50
2022/01/22 02:51:24;;;;;;;64.90;22.60;;;;;;;-4.14;48.40;100285.93;117351;1186;23671;-60
2022/01/22 02:53:55;;;;;;;108.30;34.70;;;;;;;-4.12;48.39;100288.27;117217;1186;21867;-62
2022/01/22 02:56:24;;;;;;;83.00;26.60;;;;;;;-4.07;48.46;100288.33;117342;1184;22223;-50
2022/01/22 02:58:53;;;;;;;132.00;40.00;;;;;;;-4.03;48.48;100285.95;117391;1186;23474;-51
2022/01/22 03:01:23;;;;;;;120.60;34.20;;;;;;;-4.00;48.48;100287.45;117342;1186;23478;-62
2022/01/22 03:03:51;;;;;;;64.80;24.00;;;;;;;-3.98;48.53;100285.82;117293;1186;23565;-61
2022/01/22 03:06:19;;;;;;;36.90;13.60;;;;;;;-3.97;48.47;100285.88;117186;1186;21863;-51
2022/01/22 03:08:48;;;;;;;20.80;9.90;;;;;;;-3.96;48.39;100290.35;117236;1181;23446;-62
2022/01/22 03:11:24;;;;;;;33.10;14.00;;;;;;;-3.98;48.39;100291.16;117256;1183;24156;-61
2022/01/22 03:16:57;;;;;;;27.10;11.90;;;;;;;-3.98;48.39;100292.15;117172;1185;23455;-61
2022/01/22 03:19:57;;;;;;;22.30;10.10;;;;;;;-3.97;48.46;100290.86;117123;1183;23543;-62
2022/01/22 03:22:53;;;;;;;21.40;9.80;;;;;;;-3.92;48.55;100284.21;117299;1182;23469;-50
2022/01/22 03:28:06;;;;;;;14.00;5.60;;;;;;;-3.94;48.34;100287.20;117319;1185;21859;-62
2022/01/22 03:30:34;;;;;;;19.20;8.00;;;;;;;-3.95;48.24;100290.40;117125;1185;21864;-50
2022/01/22 03:33:03;;;;;;;30.10;12.40;;;;;;;-3.95;48.52;100289.89;117139;1186;24165;-62
2022/01/22 03:35:35;;;;;;;22.00;10.00;;;;;;;-3.92;48.44;100283.67;117107;1185;23451;-51
2022/01/22 03:38:04;;;;;;;25.90;12.40;;;;;;;-3.86;48.56;100283.60;117220;1183;24173;-62
2022/01/22 03:40:33;;;;;;;18.00;8.20;;;;;;;-3.81;48.59;100283.33;116888;1186;21865;-47
2022/01/22 03:43:01;;;;;;;16.30;7.90;;;;;;;-3.77;48.46;100289.66;117192;1183;22977;-47
2022/01/22 03:45:29;;;;;;;11.70;5.60;;;;;;;-3.79;48.50;100286.17;117293;1185;23786;-59
2022/01/22 03:47:58;;;;;;;14.50;6.00;;;;;;;-3.80;48.48;100288.52;117179;1186;22870;-61
2022/01/22 03:50:26;;;;;;;11.70;5.30;;;;;;;-3.80;48.43;100289.85;117235;1183;22612;-50
2022/01/22 03:52:54;;;;;;;9.60;4.50;;;;;;;-3.83;48.38;100285.64;117213;1183;23478;-61
2022/01/22 03:58:01;;;;;;;9.60;3.90;;;;;;;-3.85;48.52;100274.02;117213;1182;23497;-62
2022/01/22 04:00:30;;;;;;;8.40;3.30;;;;;;;-3.85;48.51;100269.05;117257;1182;23503;-49
2022/01/22 04:05:46;;;;;;;8.50;4.00;;;;;;;-3.88;48.37;100268.77;117270;1182;23479;-61
2022/01/22 04:08:18;;;;;;;13.40;5.60;;;;;;;-3.94;48.37;100274.35;117146;1186;23461;-61
2022/01/22 04:10:47;;;;;;;24.30;8.90;;;;;;;-4.01;48.35;100279.36;117305;1179;22658;-50
2022/01/22 04:13:17;;;;;;;18.40;7.80;;;;;;;-4.10;48.13;100280.31;117078;1185;22578;-49
2022/01/22 04:15:48;;;;;;;11.90;6.20;;;;;;;-4.19;48.37;100282.31;117308;1186;23459;-62
2022/01/22 04:26:56;;;;;;;11.00;4.80;;;;;;;-4.40;48.27;100287.34;116962;1185;21854;-49
2022/01/22 04:29:26;;;;;;;10.70;4.10;;;;;;;-4.43;48.26;100286.35;117310;1185;21857;-50
2022/01/22 04:31:54;;;;;;;10.10;4.50;;;;;;;-4.45;48.15;100285.76;117049;1181;21942;-61
2022/01/22 04:34:22;;;;;;;22.50;9.50;;;;;;;-4.50;48.30;100291.01;117274;1182;21926;-62
2022/01/22 04:36:50;;;;;;;25.80;13.20;;;;;;;-4.54;48.14;100288.73;117167;1178;23455;-49
2022/01/22 04:39:21;;;;;;;16.60;8.30;;;;;;;-4.56;48.32;100288.48;116897;1185;23598;-61
2022/01/22 04:41:52;;;;;;;11.30;6.50;;;;;;;-4.56;48.30;100286.61;117151;1183;21854;-62
2022/01/22 04:44:21;;;;;;;9.80;5.40;;;;;;;-4.57;48.31;100288.60;117231;1182;23526;-50
2022/01/22 04:47:17;;;;;;;9.90;5.10;;;;;;;-4.58;48.36;100290.61;117235;1182;24268;-61
2022/01/22 04:54:57;;;;;;;9.70;4.30;;;;;;;-4.59;48.39;100291.59;117283;1185;23477;-49
2022/01/22 04:55:30;;;;;;;7.30;4.10;;;;;;;-4.62;48.33;100283.42;117268;1182;22025;-65
2022/01/22 04:58:10;;;;;;;;;;;;;;;-4.65;48.26;100282.42;117259;1182;22020;-50
2022/01/22 05:00:41;;;;;;;12.40;5.80;;;;;;;-4.67;48.41;100278.23;117137;1186;23614;-50
2022/01/22 05:03:09;;;;;;;10.80;5.50;;;;;;;-4.59;48.06;100280.61;117223;1176;23442;-61
2022/01/22 05:05:38;;;;;;;8.70;4.10;;;;;;;-4.55;48.00;100280.48;117425;1185;21856;-62
2022/01/22 05:08:06;;;;;;;9.00;4.80;;;;;;;-4.60;48.19;100283.50;117163;1183;22947;-65
2022/01/22 05:10:35;;;;;;;11.50;4.90;;;;;;;-4.59;48.55;100289.04;117254;1182;23581;-64
2022/01/22 05:13:05;;;;;;;26.70;6.70;;;;;;;-4.54;48.45;100294.38;117080;1183;23475;-50
2022/01/22 05:15:33;;;;;;;18.30;8.00;;;;;;;-4.50;48.53;100295.61;117113;1182;24168;-50
2022/01/22 05:18:06;;;;;;;16.00;7.00;;;;;;;-4.46;48.45;100298.02;117281;1185;23478;-50
2022/01/22 05:20:43;;;;;;;19.90;7.00;;;;;;;-4.44;48.43;100302.23;117061;1184;23550;-51
2022/01/22 05:23:17;;;;;;;22.20;5.90;;;;;;;-4.34;48.66;100305.42;117238;1182;22068;-49
2022/01/22 05:25:55;;;;;;;10.00;4.50;;;;;;;-4.18;48.90;100304.47;117226;1181;21867;-49
2022/01/22 05:29:04;;;;;;;7.90;3.80;;;;;;;-4.06;48.77;100311.86;117242;1185;23464;-49
2022/01/22 05:31:42;;;;;;;8.70;3.90;;;;;;;-4.05;48.63;100318.42;117222;1183;22133;-62
2022/01/22 05:39:24;;;;;;;6.40;3.70;;;;;;;-4.10;48.74;100322.32;117317;1180;24175;-62
2022/01/22 05:41:53;;;;;;;82.50;43.00;;;;;;;-4.10;48.62;100317.65;117160;1185;21874;-60
2022/01/22 05:44:21;;;;;;;67.80;35.90;;;;;;;-4.07;48.81;100316.45;117082;1186;23478;-49
2022/01/22 05:46:51;;;;;;;76.20;39.10;;;;;;;-3.94;49.04;100312.58;117276;1186;23464;-61
2022/01/22 05:49:22;;;;;;;27.00;15.60;;;;;;;-3.82;49.01;100311.73;117129;1186;21867;-49
2022/01/22 05:51:53;;;;;;;13.90;6.60;;;;;;;-3.74;48.95;100311.06;117176;1186;21889;-60
2022/01/22 05:59:55;;;;;;;8.60;4.10;;;;;;;-3.53;48.99;100304.56;117207;1186;23477;-60
2022/01/22 06:02:24;;;;;;;7.20;2.80;;;;;;;-3.46;49.11;100303.17;117295;1182;22611;-50
2022/01/22 06:04:52;;;;;;;7.40;3.80;;;;;;;-3.36;49.19;100302.73;117227;1180;23503;-60
2022/01/22 06:07:20;;;;;;;9.10;3.40;;;;;;;-3.26;49.14;100296.14;117247;1183;21899;-50
2022/01/22 06:14:59;;;;;;;10.70;4.00;;;;;;;-2.78;49.38;100285.04;117251;1186;23488;-50
2022/01/22 06:17:28;;;;;;;6.80;3.30;;;;;;;-2.64;49.39;100289.38;117288;1185;23554;-51
2022/01/22 06:19:56;;;;;;;7.40;3.20;;;;;;;-2.51;49.51;100296.27;117207;1182;22860;-60
2022/01/22 06:22:24;;;;;;;5.50;3.10;;;;;;;-2.40;49.38;100301.81;117127;1179;21866;-60
2022/01/22 06:24:52;;;;;;;7.20;3.20;;;;;;;-2.32;49.29;100303.33;117276;1182;23528;-60
2022/01/22 06:27:21;;;;;;;6.00;3.10;;;;;;;-2.27;49.39;100304.39;117218;1182;21916;-50
2022/01/22 06:29:49;;;;;;;8.90;3.30;;;;;;;-2.21;49.36;100300.63;117289;1182;23460;-51
2022/01/22 06:32:18;;;;;;;11.10;4.90;;;;;;;-2.15;49.44;100300.70;117259;1182;23450;-51
2022/01/22 06:34:46;;;;;;;10.50;4.30;;;;;;;-2.11;49.27;100301.57;117234;1181;23452;-51
2022/01/22 06:37:14;;;;;;;12.20;5.70;;;;;;;-2.05;49.26;100302.79;117238;1182;21940;-51
2022/01/22 06:42:50;;;;;;;13.50;5.80;;;;;;;-1.95;49.37;100308.33;116845;1184;22908;-61
2022/01/22 06:45:18;;;;;;;17.00;7.10;;;;;;;-1.91;49.57;100311.21;116894;1188;22950;-56
2022/01/22 06:47:46;;;;;;;9.80;4.80;;;;;;;-1.83;49.47;100310.65;116941;1186;24169;-61
2022/01/22 06:50:15;;;;;;;8.80;4.10;;;;;;;-1.74;49.59;100312.70;116936;1186;22645;-51
2022/01/22 06:52:43;;;;;;;9.50;4.10;;;;;;;-1.63;49.63;100310.86;117020;1186;23478;-60
2022/01/22 06:55:15;;;;;;;6.60;3.00;;;;;;;-1.47;49.64;100311.23;116744;1189;21922;-61
2022/01/22 06:57:44;;;;;;;7.30;3.10;;;;;;;-1.31;49.61;100315.58;116970;1186;22883;-60
2022/01/22 07:00:13;;;;;;;8.50;3.50;;;;;;;-1.18;49.70;100314.13;116917;1186;23553;-60
2022/01/22 07:02:41;;;;;;;8.10;3.10;;;;;;;-1.09;49.41;100307.75;116836;1186;21855;-51
2022/01/22 07:05:09;;;;;;;6.40;3.20;;;;;;;-1.02;49.70;100308.48;116943;1186;21858;-60
2022/01/22 07:07:37;;;;;;;7.40;3.40;;;;;;;-0.97;49.58;100305.56;117025;1188;21899;-60
2022/01/22 07:10:06;;;;;;;6.60;3.10;;;;;;;-0.92;49.43;100308.31;116944;1179;21943;-51
2022/01/22 07:12:35;;;;;;;5.80;2.70;;;;;;;-0.87;49.66;100309.30;116955;1188;23556;-60
2022/01/22 07:15:04;;;;;;;10.20;3.00;;;;;;;-0.82;49.74;100308.63;117094;1186;23461;-52
2022/01/22 07:17:35;;;;;;;5.40;2.80;;;;;;;-0.73;49.63;100310.29;117112;1177;24210;-51
2022/01/22 07:20:05;;;;;;;8.00;2.80;;;;;;;-0.63;49.73;100311.30;117114;1183;22931;-51
2022/01/22 07:22:40;;;;;;;6.50;3.10;;;;;;;-0.52;49.81;100310.27;117168;1186;21860;-61
2022/01/22 07:25:08;;;;;;;6.60;2.80;;;;;;;-0.40;49.69;100304.92;116988;1183;22524;-50
2022/01/22 07:27:37;;;;;;;7.00;2.90;;;;;;;-0.31;49.67;100305.75;117140;1182;24136;-50
2022/01/22 07:30:05;;;;;;;5.50;2.70;;;;;;;-0.22;49.50;100310.84;117118;1184;23474;-51
2022/01/22 07:32:37;;;;;;;5.80;2.90;;;;;;;-0.15;49.29;100313.29;117239;1186;22833;-60
2022/01/22 07:35:06;;;;;;;8.90;3.20;;;;;;;-0.12;49.75;100318.21;117199;1186;22523;-60
2022/01/22 07:37:36;;;;;;;6.00;2.90;;;;;;;-0.11;49.33;100324.79;117253;1182;23460;-51
2022/01/22 07:40:05;;;;;;;7.50;3.10;;;;;;;-0.12;49.39;100327.87;117085;1184;22963;-61
2022/01/22 07:42:34;;;;;;;6.20;2.60;;;;;;;-0.12;49.29;100333.73;117130;1186;23552;-51
2022/01/22 07:45:03;;;;;;;7.50;3.50;;;;;;;-0.14;49.57;100330.23;117159;1182;21896;-59
2022/01/22 07:47:33;;;;;;;5.50;2.90;;;;;;;-0.15;49.39;100331.59;117248;1182;23635;-60
2022/01/22 07:50:03;;;;;;;7.70;3.20;;;;;;;-0.12;49.56;100338.55;117205;1182;22927;-52
2022/01/22 07:52:31;;;;;;;6.70;3.30;;;;;;;-0.10;49.57;100339.13;117240;1186;21883;-61
2022/01/22 07:54:59;;;;;;;5.80;2.90;;;;;;;-0.07;49.53;100333.54;117136;1184;23490;-61
2022/01/22 07:57:27;;;;;;;8.90;3.20;;;;;;;0.02;49.82;100332.41;117280;1178;21847;-60
2022/01/22 07:59:56;;;;;;;8.80;3.10;;;;;;;0.19;49.76;100332.23;117296;1185;23549;-61
2022/01/22 08:02:24;;;;;;;7.90;3.30;;;;;;;0.41;49.78;100336.31;117227;1181;23554;-51
2022/01/22 08:04:52;;;;;;;7.40;3.40;;;;;;;0.64;50.00;100340.23;117230;1182;21860;-52
2022/01/22 08:07:21;;;;;;;7.60;3.30;;;;;;;0.86;50.09;100337.88;117248;1185;21922;-52
2022/01/22 08:09:50;;;;;;;5.40;2.80;;;;;;;1.07;50.10;100341.36;117287;1185;23452;-51
2022/01/22 08:12:18;;;;;;;6.30;3.50;;;;;;;1.28;50.16;100346.55;117300;1183;21866;-52
2022/01/22 08:14:47;;;;;;;5.50;3.00;;;;;;;1.53;50.33;100351.30;117084;1180;22968;-62
2022/01/22 08:17:15;;;;;;;6.90;3.30;;;;;;;1.81;50.45;100345.91;117036;1186;23478;-61
2022/01/22 08:19:43;;;;;;;6.80;3.40;;;;;;;2.03;50.49;100337.22;117221;1182;24176;-62
2022/01/22 08:22:12;;;;;;;8.90;3.30;;;;;;;2.21;50.11;100335.70;117193;1183;21858;-52
2022/01/22 08:24:40;;;;;;;6.90;2.80;;;;;;;2.27;50.01;100331.83;117261;1179;21871;-63
2022/01/22 08:27:22;;;;;;;7.10;3.30;;;;;;;2.27;49.87;100328.53;117296;1185;21876;-63
2022/01/22 08:29:50;;;;;;;7.40;3.20;;;;;;;2.32;50.14;100329.85;117063;1185;22969;-63
2022/01/22 08:37:43;;;;;;;6.00;3.20;;;;;;;2.53;49.84;100329.06;117092;1180;21905;-63
2022/01/22 08:40:11;;;;;;;7.90;3.70;;;;;;;2.44;49.54;100325.59;117284;1179;21857;-53
2022/01/22 08:42:39;;;;;;;8.30;3.80;;;;;;;2.29;49.64;100332.73;117204;1179;23484;-62
2022/01/22 08:45:08;;;;;;;7.10;3.60;;;;;;;2.16;49.64;100326.92;117169;1186;21859;-52
2022/01/22 08:47:38;;;;;;;6.20;3.50;;;;;;;2.05;49.46;100328.08;117342;1186;21881;-62
2022/01/22 08:50:07;;;;;;;8.30;4.20;;;;;;;1.98;49.58;100332.78;117309;1186;21864;-62
2022/01/22 08:52:36;;;;;;;8.70;3.40;;;;;;;1.95;49.78;100334.27;117308;1176;23454;-52
2022/01/22 08:55:05;;;;;;;9.90;4.90;;;;;;;1.91;49.64;100331.08;117267;1185;22137;-62
2022/01/22 08:57:34;;;;;;;7.60;4.10;;;;;;;1.88;49.68;100331.52;117296;1185;21918;-52
2022/01/22 09:00:04;;;;;;;8.60;3.70;;;;;;;1.87;49.60;100333.23;117111;1185;23657;-62
2022/01/22 09:02:34;;;;;;;9.60;4.20;;;;;;;1.87;49.69;100335.30;117273;1184;22930;-62
2022/01/22 09:05:03;;;;;;;7.70;3.00;;;;;;;1.90;49.55;100333.64;116800;1189;23478;-62
2022/01/22 09:07:32;;;;;;;8.10;3.90;;;;;;;1.95;49.81;100333.77;117292;1182;21872;-62
2022/01/22 09:10:00;;;;;;;9.00;4.60;;;;;;;2.01;49.79;100329.90;117281;1185;23451;-62
2022/01/22 09:12:33;;;;;;;6.10;3.10;;;;;;;2.08;49.95;100335.06;117124;1185;22996;-54
2022/01/22 09:15:02;;;;;;;6.30;3.50;;;;;;;2.12;49.76;100335.33;117340;1185;21855;-53
2022/01/22 09:17:30;;;;;;;7.20;3.80;;;;;;;2.15;49.73;100332.30;117133;1178;21858;-53
2022/01/22 09:20:01;;;;;;;9.20;4.60;;;;;;;2.20;49.64;100334.11;117072;1179;22651;-62
2022/01/22 09:22:29;;;;;;;7.80;3.70;;;;;;;2.25;49.60;100328.16;117283;1185;21879;-53
2022/01/22 09:24:57;;;;;;;7.40;3.60;;;;;;;2.31;49.88;100324.81;117268;1181;22839;-52
2022/01/22 09:27:28;;;;;;;8.30;3.50;;;;;;;2.35;49.87;100320.75;117346;1185;21889;-52
2022/01/22 09:29:56;;;;;;;8.40;4.40;;;;;;;2.36;49.83;100318.00;117063;1180;22925;-62
2022/01/22 09:32:24;;;;;;;6.20;3.60;;;;;;;2.40;49.88;100317.90;117416;1183;23472;-54
2022/01/22 09:34:52;;;;;;;5.90;3.50;;;;;;;2.43;49.76;100316.56;117275;1186;23501;-62
2022/01/22 09:37:21;;;;;;;7.50;4.10;;;;;;;2.44;49.87;100309.31;117294;1181;23494;-54
2022/01/22 09:39:49;;;;;;;8.10;3.60;;;;;;;2.49;49.77;100313.23;117312;1185;23184;-54
2022/01/22 09:42:17;;;;;;;6.60;3.80;;;;;;;2.52;49.79;100315.38;117111;1181;23528;-62
2022/01/22 09:44:46;;;;;;;7.50;3.90;;;;;;;2.54;49.85;100314.36;117280;1181;23474;-61
2022/01/22 09:47:18;;;;;;;7.70;4.10;;;;;;;2.57;50.00;100313.55;117325;1185;23471;-62
2022/01/22 09:49:46;;;;;;;8.40;4.10;;;;;;;2.60;49.84;100316.36;117240;1185;21858;-61
2022/01/22 09:52:15;;;;;;;7.60;4.00;;;;;;;2.64;49.84;100315.06;117056;1181;23677;-54
2022/01/22 09:54:43;;;;;;;7.50;3.90;;;;;;;2.67;49.90;100315.98;117377;1183;21858;-53
2022/01/22 09:57:13;;;;;;;8.00;3.90;;;;;;;2.69;49.90;100309.79;117256;1185;21858;-62
2022/01/22 09:59:41;;;;;;;8.40;4.20;;;;;;;2.96;49.32;100309.05;117285;1186;23691;-62
2022/01/22 10:02:18;;;;;;;7.80;3.80;;;;;;;3.05;49.26;100304.55;117239;1185;23456;-55
2022/01/22 10:04:48;;;;;;;9.80;4.70;;;;;;;3.11;49.22;100304.29;117260;1182;23452;-62
2022/01/22 10:07:24;;;;;;;8.40;3.90;;;;;;;3.13;49.18;100299.11;117238;1183;21864;-54
2022/01/22 10:09:59;;;;;;;6.90;3.70;;;;;;;3.11;49.22;100299.09;117251;1186;21855;-53
2022/01/22 10:12:29;;;;;;;6.90;4.40;;;;;;;3.12;49.34;100300.66;117369;1186;22654;-62
2022/01/22 10:15:21;;;;;;;7.40;4.50;;;;;;;3.14;49.14;100298.61;117277;1184;21887;-62
2022/01/22 10:17:53;;;;;;;7.70;4.00;;;;;;;3.14;49.12;100292.52;117079;1185;23490;-52
2022/01/22 10:20:21;;;;;;;7.80;4.20;;;;;;;3.09;49.01;100291.07;117197;1185;23547;-62
2022/01/22 10:22:51;;;;;;;10.20;4.50;;;;;;;3.07;49.09;100288.11;117341;1183;21923;-62
2022/01/22 10:25:20;;;;;;;9.30;4.60;;;;;;;3.12;49.01;100281.95;117302;1185;21869;-61
2022/01/22 10:27:56;;;;;;;9.40;4.20;;;;;;;3.14;49.09;100277.11;117249;1181;22798;-62
2022/01/22 10:30:34;;;;;;;8.60;4.30;;;;;;;3.13;49.16;100277.45;117256;1185;21964;-53
2022/01/22 10:35:48;;;;;;;9.30;5.20;;;;;;;3.05;49.45;100270.73;117311;1185;21975;-62
2022/01/22 10:38:21;;;;;;;7.30;4.10;;;;;;;2.93;49.67;100261.69;117284;1182;24271;-53
2022/01/22 10:40:54;;;;;;;9.40;4.90;;;;;;;2.94;49.73;100263.10;117271;1185;23570;-54
2022/01/22 10:43:34;;;;;;;13.20;4.60;;;;;;;2.96;49.80;100258.28;117283;1185;21945;-61
2022/01/22 10:47:03;;;;;;;9.90;4.50;;;;;;;3.20;49.52;100247.22;117252;1185;23035;-61
2022/01/22 10:49:01;;;;;;;14.00;5.40;;;;;;;3.31;49.28;100248.42;117186;1186;23624;-53
2022/01/22 10:51:30;;;;;;;8.50;4.00;;;;;;;3.27;49.51;100249.73;117272;1183;23002;-61
2022/01/22 10:54:00;;;;;;;7.80;4.30;;;;;;;3.20;49.77;100252.06;117276;1182;22563;-62
2022/01/22 10:56:30;;;;;;;7.80;4.20;;;;;;;3.22;49.84;100250.89;117306;1184;21860;-61
2022/01/22 10:59:09;;;;;;;8.90;4.20;;;;;;;3.30;49.88;100253.77;117117;1181;21867;-62
2022/01/22 11:01:55;;;;;;;8.70;4.50;;;;;;;3.38;49.78;100252.36;117339;1185;21854;-61
2022/01/22 11:04:25;;;;;;;7.20;4.10;;;;;;;3.41;49.86;100253.61;117331;1183;22316;-61
2022/01/22 11:06:55;;;;;;;10.40;4.40;;;;;;;3.44;50.01;100256.42;117302;1185;22878;-60
2022/01/22 11:09:44;;;;;;;;;;;;;;;3.40;49.83;100258.45;117251;1182;23457;-52
2022/01/22 11:12:12;;;;;;;7.50;4.30;;;;;;;3.43;49.82;100257.27;117162;1185;23801;-53
2022/01/22 11:14:41;;;;;;;7.90;4.60;;;;;;;3.40;49.71;100253.93;117138;1184;23533;-53
2022/01/22 11:17:31;;;;;;;11.90;4.70;;;;;;;3.41;49.82;100251.36;117222;1185;23490;-66
2022/01/22 11:19:59;;;;;;;8.80;4.40;;;;;;;3.46;50.02;100251.95;117113;1186;22624;-51
2022/01/22 11:22:27;;;;;;;7.80;5.00;;;;;;;3.56;49.73;100247.38;117069;1186;23453;-54
2022/01/22 11:24:57;;;;;;;8.40;4.80;;;;;;;3.59;49.72;100243.96;117105;1183;23529;-61
2022/01/22 11:27:28;;;;;;;10.00;4.90;;;;;;;3.62;49.88;100242.44;117237;1184;22121;-53
2022/01/22 11:30:02;;;;;;;11.00;5.00;;;;;;;3.65;50.06;100243.36;117209;1185;23477;-60
2022/01/22 11:32:52;;;;;;;11.00;5.90;;;;;;;3.73;50.05;100242.95;117370;1181;23468;-61
2022/01/22 11:35:23;;;;;;;8.20;4.80;;;;;;;3.78;49.93;100233.11;117291;1185;23490;-61
2022/01/22 11:37:52;;;;;;;;;;;;;;;3.77;49.82;100232.58;117226;1184;24157;-53
2022/01/22 11:40:23;;;;;;;8.00;4.50;;;;;;;3.77;49.94;100232.75;117277;1183;21965;-61
2022/01/22 11:43:00;;;;;;;8.40;4.50;;;;;;;3.76;49.92;100234.13;117315;1181;23257;-61
2022/01/22 11:45:44;;;;;;;9.20;5.00;;;;;;;3.69;49.61;100232.66;117232;1186;23487;-56
2022/01/22 11:48:18;;;;;;;8.50;4.60;;;;;;;3.67;49.77;100233.84;117082;1178;21858;-53
2022/01/22 11:50:48;;;;;;;8.90;4.60;;;;;;;3.71;49.87;100226.44;117247;1186;21909;-61
2022/01/22 11:53:37;;;;;;;10.00;5.70;;;;;;;3.81;50.11;100222.74;117383;1181;24182;-53
2022/01/22 11:56:11;;;;;;;11.60;5.40;;;;;;;3.99;50.06;100223.33;117306;1185;22300;-61
2022/01/22 11:58:55;;;;;;;8.10;4.50;;;;;;;4.18;50.28;100225.61;117228;1185;21910;-53
2022/01/22 12:01:43;;;;;;;9.10;5.40;;;;;;;4.39;50.37;100221.84;117277;1186;23638;-61
2022/01/22 12:04:15;;;;;;;8.30;4.30;;;;;;;4.61;50.36;100226.06;117365;1185;21951;-61
2022/01/22 12:07:04;;;;;;;12.70;5.50;;;;;;;4.72;50.02;100225.83;117331;1176;21863;-62
2022/01/22 12:10:18;;;;;;;9.30;4.80;;;;;;;4.68;49.56;100230.11;117285;1185;23647;-60
2022/01/22 12:15:40;;;;;;;10.50;5.70;;;;;;;4.66;49.95;100232.88;117078;1184;24201;-54
2022/01/22 12:18:14;;;;;;;11.30;6.20;;;;;;;4.62;49.75;100226.95;117227;1186;23505;-61
2022/01/22 12:23:31;;;;;;;8.80;4.80;;;;;;;4.60;49.92;100220.50;117282;1180;22926;-62
2022/01/22 12:26:00;;;;;;;28.20;12.70;;;;;;;4.68;49.86;100218.82;117172;1178;21898;-56
2022/01/22 12:28:36;;;;;;;53.50;19.70;;;;;;;4.73;50.01;100217.13;117293;1186;21987;-53
2022/01/22 12:31:24;;;;;;;10.70;5.70;;;;;;;5.00;49.56;100215.27;117104;1178;22324;-62
2022/01/22 12:33:53;;;;;;;8.60;4.70;;;;;;;5.13;49.49;100215.54;116904;1187;23498;-61
2022/01/22 12:36:27;;;;;;;12.00;5.10;;;;;;;5.15;49.46;100218.86;118242;1182;22920;-54
2022/01/22 12:39:15;;;;;;;11.90;5.20;;;;;;;5.17;49.29;100218.70;117054;1184;24380;-54
2022/01/22 12:41:51;;;;;;;11.50;4.70;;;;;;;5.28;49.32;100224.70;117289;1186;23631;-61
2022/01/22 12:44:35;;;;;;;7.90;4.30;;;;;;;5.40;49.16;100230.00;117247;1186;21858;-54
2022/01/22 12:47:10;;;;;;;9.70;4.70;;;;;;;5.48;49.39;100236.48;117029;1184;24281;-53
2022/01/22 12:49:39;;;;;;;6.90;4.20;;;;;;;5.62;49.25;100234.48;117312;1181;24300;-54
2022/01/22 12:52:10;;;;;;;6.70;3.60;;;;;;;5.76;49.25;100234.20;117375;1183;21883;-62
2022/01/22 12:54:43;;;;;;;7.10;3.50;;;;;;;5.92;49.39;100236.21;117331;1185;21951;-61
2022/01/22 12:57:20;;;;;;;11.80;5.80;;;;;;;6.23;48.78;100232.69;117319;1183;21860;-54
2022/01/22 13:00:00;;;;;;;7.80;3.40;;;;;;;6.11;49.78;100237.53;117342;1183;23563;-61
2022/01/22 13:02:46;;;;;;;12.80;5.60;;;;;;;5.97;49.60;100239.18;117317;1185;22938;-54
2022/01/22 13:05:16;;;;;;;43.90;27.50;;;;;;;5.79;49.51;100247.28;117246;1183;22620;-55
2022/01/22 13:07:51;;;;;;;52.20;19.10;;;;;;;5.60;49.16;100255.19;117245;1186;22632;-53
2022/01/22 13:10:31;;;;;;;19.40;10.20;;;;;;;5.41;49.19;100257.15;117351;1181;23548;-60